sensor_id;sensor_type;location;lat;lon;timestamp;temperature;humidity
10583;DHT22;33679;51.218;6.786;2022-07-19T00:00:35;27.60;90.40
10583;DHT22;33679;51.218;6.786;2022-07-19T00:03:02;27.60;90.70
10583;DHT22;33679;51.218;6.786;2022-07-19T00:05:30;27.60;90.50
10583;DHT22;33679;51.218;6.786;2022-07-19T00:07:57;27.60;90.60
10583;DHT22;33679;51.218;6.786;2022-07-19T00:10:25;27.50;90.70
10583;DHT22;33679;51.218;6.786;2022-07-19T00:12:52;27.40;91.10
10583;DHT22;33679;51.218;6.786;2022-07-19T00:15:21;27.40;91.30
10583;DHT22;33679;51.218;6.786;2022-07-19T00:17:49;27.30;91.40
10583;DHT22;33679;51.218;6.786;2022-07-19T00:20:17;27.20;91.50
10583;DHT22;33679;51.218;6.786;2022-07-19T00:22:45;27.20;91.50
10583;DHT22;33679;51.218;6.786;2022-07-19T00:25:12;27.10;91.40
10583;DHT22;33679;51.218;6.786;2022-07-19T00:27:40;27.10;91.50
10583;DHT22;33679;51.218;6.786;2022-07-19T00:30:08;27.10;91.50
10583;DHT22;33679;51.218;6.786;2022-07-19T00:32:40;27.10;91.50
10583;DHT22;33679;51.218;6.786;2022-07-19T00:35:08;27.00;91.40
10583;DHT22;33679;51.218;6.786;2022-07-19T00:37:35;27.00;91.40
10583;DHT22;33679;51.218;6.786;2022-07-19T00:40:03;27.00;91.40
10583;DHT22;33679;51.218;6.786;2022-07-19T00:42:31;27.00;91.60
10583;DHT22;33679;51.218;6.786;2022-07-19T00:44:59;27.00;91.60
10583;DHT22;33679;51.218;6.786;2022-07-19T00:47:26;26.90;91.70
10583;DHT22;33679;51.218;6.786;2022-07-19T00:49:55;26.90;91.80
10583;DHT22;33679;51.218;6.786;2022-07-19T00:52:22;26.90;91.80
10583;DHT22;33679;51.218;6.786;2022-07-19T00:54:52;26.90;91.90
10583;DHT22;33679;51.218;6.786;2022-07-19T00:57:20;26.80;92.00
10583;DHT22;33679;51.218;6.786;2022-07-19T00:59:50;26.80;92.10
10583;DHT22;33679;51.218;6.786;2022-07-19T01:02:18;26.80;92.20
10583;DHT22;33679;51.218;6.786;2022-07-19T01:04:46;26.70;92.10
10583;DHT22;33679;51.218;6.786;2022-07-19T01:07:14;26.80;92.30
10583;DHT22;33679;51.218;6.786;2022-07-19T01:09:42;26.70;92.30
10583;DHT22;33679;51.218;6.786;2022-07-19T01:12:09;26.70;92.30
10583;DHT22;33679;51.218;6.786;2022-07-19T01:14:37;26.70;92.40
10583;DHT22;33679;51.218;6.786;2022-07-19T01:17:04;26.70;92.50
10583;DHT22;33679;51.218;6.786;2022-07-19T01:19:31;26.70;92.40
10583;DHT22;33679;51.218;6.786;2022-07-19T01:22:00;26.70;92.40
10583;DHT22;33679;51.218;6.786;2022-07-19T01:24:28;26.60;92.40
10583;DHT22;33679;51.218;6.786;2022-07-19T01:26:55;26.60;92.40
10583;DHT22;33679;51.218;6.786;2022-07-19T01:29:25;26.50;92.40
10583;DHT22;33679;51.218;6.786;2022-07-19T01:31:53;26.60;92.50
10583;DHT22;33679;51.218;6.786;2022-07-19T01:34:22;26.50;92.40
10583;DHT22;33679;51.218;6.786;2022-07-19T01:36:50;26.50;92.40
10583;DHT22;33679;51.218;6.786;2022-07-19T01:39:18;26.50;92.70
10583;DHT22;33679;51.218;6.786;2022-07-19T01:41:46;26.50;92.70
10583;DHT22;33679;51.218;6.786;2022-07-19T01:44:14;26.50;92.50
10583;DHT22;33679;51.218;6.786;2022-07-19T01:46:41;26.50;92.50
10583;DHT22;33679;51.218;6.786;2022-07-19T01:49:09;26.50;92.60
10583;DHT22;33679;51.218;6.786;2022-07-19T01:51:39;26.50;92.50
10583;DHT22;33679;51.218;6.786;2022-07-19T01:54:06;26.50;92.70
10583;DHT22;33679;51.218;6.786;2022-07-19T01:56:35;26.50;92.90
10583;DHT22;33679;51.218;6.786;2022-07-19T01:59:02;26.40;92.70
10583;DHT22;33679;51.218;6.786;2022-07-19T02:01:29;26.40;92.70
10583;DHT22;33679;51.218;6.786;2022-07-19T02:03:56;26.30;92.80
10583;DHT22;33679;51.218;6.786;2022-07-19T02:06:24;26.30;92.80
10583;DHT22;33679;51.218;6.786;2022-07-19T02:08:51;26.30;92.70
10583;DHT22;33679;51.218;6.786;2022-07-19T02:11:18;26.30;92.80
10583;DHT22;33679;51.218;6.786;2022-07-19T02:14:04;26.30;92.80
10583;DHT22;33679;51.218;6.786;2022-07-19T02:16:31;26.30;92.80
10583;DHT22;33679;51.218;6.786;2022-07-19T02:19:02;26.30;92.70
10583;DHT22;33679;51.218;6.786;2022-07-19T02:21:29;26.20;92.60
10583;DHT22;33679;51.218;6.786;2022-07-19T02:23:57;26.20;92.60
10583;DHT22;33679;51.218;6.786;2022-07-19T02:26:24;26.20;92.50
10583;DHT22;33679;51.218;6.786;2022-07-19T02:28:52;26.20;92.50
10583;DHT22;33679;51.218;6.786;2022-07-19T02:31:21;26.30;92.50
10583;DHT22;33679;51.218;6.786;2022-07-19T02:33:49;26.30;92.70
10583;DHT22;33679;51.218;6.786;2022-07-19T02:36:16;26.20;92.70
10583;DHT22;33679;51.218;6.786;2022-07-19T02:38:45;26.20;92.70
10583;DHT22;33679;51.218;6.786;2022-07-19T02:41:16;26.20;92.70
10583;DHT22;33679;51.218;6.786;2022-07-19T02:43:44;26.20;92.60
10583;DHT22;33679;51.218;6.786;2022-07-19T02:46:11;26.20;92.60
10583;DHT22;33679;51.218;6.786;2022-07-19T02:48:43;26.20;92.60
10583;DHT22;33679;51.218;6.786;2022-07-19T02:51:10;26.20;92.80
10583;DHT22;33679;51.218;6.786;2022-07-19T02:53:38;26.20;92.70
10583;DHT22;33679;51.218;6.786;2022-07-19T02:56:05;26.20;92.70
10583;DHT22;33679;51.218;6.786;2022-07-19T02:58:33;26.10;92.70
10583;DHT22;33679;51.218;6.786;2022-07-19T03:01:00;26.10;92.90
10583;DHT22;33679;51.218;6.786;2022-07-19T03:03:27;26.10;92.90
10583;DHT22;33679;51.218;6.786;2022-07-19T03:06:16;26.10;93.00
10583;DHT22;33679;51.218;6.786;2022-07-19T03:08:44;26.10;93.00
10583;DHT22;33679;51.218;6.786;2022-07-19T03:11:14;26.00;93.00
10583;DHT22;33679;51.218;6.786;2022-07-19T03:13:44;26.00;93.10
10583;DHT22;33679;51.218;6.786;2022-07-19T03:16:11;26.00;93.10
10583;DHT22;33679;51.218;6.786;2022-07-19T03:18:38;25.90;93.10
10583;DHT22;33679;51.218;6.786;2022-07-19T03:21:06;25.90;93.30
10583;DHT22;33679;51.218;6.786;2022-07-19T03:23:37;25.90;93.30
10583;DHT22;33679;51.218;6.786;2022-07-19T03:26:07;25.90;93.30
10583;DHT22;33679;51.218;6.786;2022-07-19T03:28:35;25.80;93.30
10583;DHT22;33679;51.218;6.786;2022-07-19T03:31:02;25.80;93.50
10583;DHT22;33679;51.218;6.786;2022-07-19T03:33:29;25.80;93.50
10583;DHT22;33679;51.218;6.786;2022-07-19T03:35:56;25.80;93.50
10583;DHT22;33679;51.218;6.786;2022-07-19T03:38:24;25.80;93.60
10583;DHT22;33679;51.218;6.786;2022-07-19T03:40:52;25.80;93.60
10583;DHT22;33679;51.218;6.786;2022-07-19T03:43:21;25.70;93.60
10583;DHT22;33679;51.218;6.786;2022-07-19T03:45:48;25.70;93.50
10583;DHT22;33679;51.218;6.786;2022-07-19T03:48:16;25.70;93.50
10583;DHT22;33679;51.218;6.786;2022-07-19T03:50:44;25.70;93.50
10583;DHT22;33679;51.218;6.786;2022-07-19T03:53:11;25.60;93.60
10583;DHT22;33679;51.218;6.786;2022-07-19T03:55:38;25.70;93.60
10583;DHT22;33679;51.218;6.786;2022-07-19T03:58:07;25.60;93.60
10583;DHT22;33679;51.218;6.786;2022-07-19T04:00:34;25.60;93.70
10583;DHT22;33679;51.218;6.786;2022-07-19T04:03:02;25.60;93.70
10583;DHT22;33679;51.218;6.786;2022-07-19T04:05:29;25.60;93.90
10583;DHT22;33679;51.218;6.786;2022-07-19T04:08:00;25.60;93.80
10583;DHT22;33679;51.218;6.786;2022-07-19T04:10:27;25.70;93.80
10583;DHT22;33679;51.218;6.786;2022-07-19T04:12:57;25.70;93.80
10583;DHT22;33679;51.218;6.786;2022-07-19T04:15:27;25.70;93.80
10583;DHT22;33679;51.218;6.786;2022-07-19T04:17:54;25.70;93.70
10583;DHT22;33679;51.218;6.786;2022-07-19T04:20:22;25.70;93.80
10583;DHT22;33679;51.218;6.786;2022-07-19T04:22:51;25.70;93.60
10583;DHT22;33679;51.218;6.786;2022-07-19T04:25:18;25.80;93.60
10583;DHT22;33679;51.218;6.786;2022-07-19T04:27:45;25.80;93.50
10583;DHT22;33679;51.218;6.786;2022-07-19T04:30:13;25.80;93.50
10583;DHT22;33679;51.218;6.786;2022-07-19T04:32:41;25.80;93.40
10583;DHT22;33679;51.218;6.786;2022-07-19T04:35:08;25.80;93.30
10583;DHT22;33679;51.218;6.786;2022-07-19T04:37:35;25.80;93.30
10583;DHT22;33679;51.218;6.786;2022-07-19T04:40:03;25.80;93.10
10583;DHT22;33679;51.218;6.786;2022-07-19T04:42:30;25.80;93.20
10583;DHT22;33679;51.218;6.786;2022-07-19T04:44:58;25.80;93.00
10583;DHT22;33679;51.218;6.786;2022-07-19T04:47:25;25.90;93.00
10583;DHT22;33679;51.218;6.786;2022-07-19T04:49:53;25.90;93.00
10583;DHT22;33679;51.218;6.786;2022-07-19T04:52:21;25.90;93.10
10583;DHT22;33679;51.218;6.786;2022-07-19T04:54:48;26.00;93.10
10583;DHT22;33679;51.218;6.786;2022-07-19T04:57:15;26.00;93.10
10583;DHT22;33679;51.218;6.786;2022-07-19T04:59:42;26.00;93.20
10583;DHT22;33679;51.218;6.786;2022-07-19T05:02:09;26.10;93.50
10583;DHT22;33679;51.218;6.786;2022-07-19T05:04:36;26.20;93.20
10583;DHT22;33679;51.218;6.786;2022-07-19T05:07:04;26.20;93.30
10583;DHT22;33679;51.218;6.786;2022-07-19T05:09:31;26.20;93.30
10583;DHT22;33679;51.218;6.786;2022-07-19T05:11:59;26.30;93.20
10583;DHT22;33679;51.218;6.786;2022-07-19T05:14:26;26.30;93.30
10583;DHT22;33679;51.218;6.786;2022-07-19T05:16:53;26.40;93.30
10583;DHT22;33679;51.218;6.786;2022-07-19T05:19:20;26.50;93.20
10583;DHT22;33679;51.218;6.786;2022-07-19T05:21:47;26.50;93.20
10583;DHT22;33679;51.218;6.786;2022-07-19T05:24:16;26.60;93.20
10583;DHT22;33679;51.218;6.786;2022-07-19T05:26:43;26.70;93.10
10583;DHT22;33679;51.218;6.786;2022-07-19T05:29:10;26.70;93.00
10583;DHT22;33679;51.218;6.786;2022-07-19T05:31:37;26.80;93.00
10583;DHT22;33679;51.218;6.786;2022-07-19T05:34:04;26.80;92.80
10583;DHT22;33679;51.218;6.786;2022-07-19T05:36:31;26.90;92.90
10583;DHT22;33679;51.218;6.786;2022-07-19T05:39:01;26.90;92.70
10583;DHT22;33679;51.218;6.786;2022-07-19T05:41:32;26.90;92.60
10583;DHT22;33679;51.218;6.786;2022-07-19T05:43:59;26.90;92.60
10583;DHT22;33679;51.218;6.786;2022-07-19T05:46:29;26.90;92.90
10583;DHT22;33679;51.218;6.786;2022-07-19T05:48:56;26.90;92.50
10583;DHT22;33679;51.218;6.786;2022-07-19T05:51:23;26.90;92.50
10583;DHT22;33679;51.218;6.786;2022-07-19T05:53:50;26.90;92.40
10583;DHT22;33679;51.218;6.786;2022-07-19T05:56:17;27.10;92.30
10583;DHT22;33679;51.218;6.786;2022-07-19T05:58:46;27.30;92.10
10583;DHT22;33679;51.218;6.786;2022-07-19T06:01:13;27.60;92.00
10583;DHT22;33679;51.218;6.786;2022-07-19T06:03:49;28.00;91.70
10583;DHT22;33679;51.218;6.786;2022-07-19T06:06:16;28.60;91.30
10583;DHT22;33679;51.218;6.786;2022-07-19T06:08:44;29.10;90.80
10583;DHT22;33679;51.218;6.786;2022-07-19T06:11:11;29.70;90.40
10583;DHT22;33679;51.218;6.786;2022-07-19T06:13:39;30.10;90.20
10583;DHT22;33679;51.218;6.786;2022-07-19T06:16:08;30.60;89.00
10583;DHT22;33679;51.218;6.786;2022-07-19T06:18:39;31.10;88.20
10583;DHT22;33679;51.218;6.786;2022-07-19T06:21:06;31.40;87.60
10583;DHT22;33679;51.218;6.786;2022-07-19T06:23:34;31.50;87.30
10583;DHT22;33679;51.218;6.786;2022-07-19T06:26:01;31.40;86.70
10583;DHT22;33679;51.218;6.786;2022-07-19T06:28:29;31.30;87.20
10583;DHT22;33679;51.218;6.786;2022-07-19T06:30:57;31.10;87.50
10583;DHT22;33679;51.218;6.786;2022-07-19T06:33:28;31.00;87.60
10583;DHT22;33679;51.218;6.786;2022-07-19T06:35:55;31.00;86.60
10583;DHT22;33679;51.218;6.786;2022-07-19T06:38:22;30.80;85.90
10583;DHT22;33679;51.218;6.786;2022-07-19T06:40:49;30.70;85.30
10583;DHT22;33679;51.218;6.786;2022-07-19T06:43:16;30.60;84.90
10583;DHT22;33679;51.218;6.786;2022-07-19T06:45:43;30.40;84.70
10583;DHT22;33679;51.218;6.786;2022-07-19T06:48:10;30.20;83.60
10583;DHT22;33679;51.218;6.786;2022-07-19T06:50:38;30.10;84.20
10583;DHT22;33679;51.218;6.786;2022-07-19T06:53:05;30.00;83.20
10583;DHT22;33679;51.218;6.786;2022-07-19T06:55:35;29.90;83.00
10583;DHT22;33679;51.218;6.786;2022-07-19T06:58:02;29.70;82.90
10583;DHT22;33679;51.218;6.786;2022-07-19T07:00:29;29.60;82.80
10583;DHT22;33679;51.218;6.786;2022-07-19T07:02:57;29.50;83.00
10583;DHT22;33679;51.218;6.786;2022-07-19T07:05:27;29.40;83.40
10583;DHT22;33679;51.218;6.786;2022-07-19T07:07:55;29.30;83.50
10583;DHT22;33679;51.218;6.786;2022-07-19T07:10:22;29.30;83.90
10583;DHT22;33679;51.218;6.786;2022-07-19T07:12:49;29.40;84.20
10583;DHT22;33679;51.218;6.786;2022-07-19T07:15:17;29.30;84.30
10583;DHT22;33679;51.218;6.786;2022-07-19T07:17:44;29.30;84.70
10583;DHT22;33679;51.218;6.786;2022-07-19T07:20:11;29.40;84.80
10583;DHT22;33679;51.218;6.786;2022-07-19T07:22:39;29.40;85.00
10583;DHT22;33679;51.218;6.786;2022-07-19T07:25:09;29.40;84.90
10583;DHT22;33679;51.218;6.786;2022-07-19T07:27:39;29.40;85.00
10583;DHT22;33679;51.218;6.786;2022-07-19T07:30:07;29.40;84.80
10583;DHT22;33679;51.218;6.786;2022-07-19T07:32:35;29.50;84.10
10583;DHT22;33679;51.218;6.786;2022-07-19T07:35:03;29.50;84.40
10583;DHT22;33679;51.218;6.786;2022-07-19T07:37:30;29.50;84.90
10583;DHT22;33679;51.218;6.786;2022-07-19T07:39:59;29.60;84.90
10583;DHT22;33679;51.218;6.786;2022-07-19T07:42:28;29.60;85.00
10583;DHT22;33679;51.218;6.786;2022-07-19T07:44:58;29.70;85.00
10583;DHT22;33679;51.218;6.786;2022-07-19T07:47:26;29.70;84.40
10583;DHT22;33679;51.218;6.786;2022-07-19T07:49:53;29.80;84.10
10583;DHT22;33679;51.218;6.786;2022-07-19T07:52:20;29.90;83.80
10583;DHT22;33679;51.218;6.786;2022-07-19T07:54:47;29.90;83.60
10583;DHT22;33679;51.218;6.786;2022-07-19T07:57:16;30.00;83.50
10583;DHT22;33679;51.218;6.786;2022-07-19T07:59:44;30.10;83.20
10583;DHT22;33679;51.218;6.786;2022-07-19T08:02:11;30.20;82.70
10583;DHT22;33679;51.218;6.786;2022-07-19T08:04:39;30.30;81.90
10583;DHT22;33679;51.218;6.786;2022-07-19T08:07:07;30.30;81.90
10583;DHT22;33679;51.218;6.786;2022-07-19T08:09:34;30.40;81.70
10583;DHT22;33679;51.218;6.786;2022-07-19T08:12:01;30.50;81.60
10583;DHT22;33679;51.218;6.786;2022-07-19T08:14:28;30.60;81.60
10583;DHT22;33679;51.218;6.786;2022-07-19T08:16:57;30.60;81.10
10583;DHT22;33679;51.218;6.786;2022-07-19T08:19:24;30.70;81.10
10583;DHT22;33679;51.218;6.786;2022-07-19T08:21:53;30.80;80.70
10583;DHT22;33679;51.218;6.786;2022-07-19T08:24:22;30.80;80.80
10583;DHT22;33679;51.218;6.786;2022-07-19T08:26:49;30.90;80.10
10583;DHT22;33679;51.218;6.786;2022-07-19T08:29:17;31.00;80.00
10583;DHT22;33679;51.218;6.786;2022-07-19T08:31:44;31.00;79.80
10583;DHT22;33679;51.218;6.786;2022-07-19T08:34:12;31.10;79.50
10583;DHT22;33679;51.218;6.786;2022-07-19T08:36:40;31.30;79.10
10583;DHT22;33679;51.218;6.786;2022-07-19T08:39:07;31.30;79.10
10583;DHT22;33679;51.218;6.786;2022-07-19T08:41:36;31.40;78.80
10583;DHT22;33679;51.218;6.786;2022-07-19T08:44:04;31.50;78.70
10583;DHT22;33679;51.218;6.786;2022-07-19T08:46:31;31.50;78.10
10583;DHT22;33679;51.218;6.786;2022-07-19T08:48:58;31.60;78.20
10583;DHT22;33679;51.218;6.786;2022-07-19T08:51:27;31.70;78.10
10583;DHT22;33679;51.218;6.786;2022-07-19T08:53:56;31.80;77.70
10583;DHT22;33679;51.218;6.786;2022-07-19T08:56:24;31.90;77.80
10583;DHT22;33679;51.218;6.786;2022-07-19T08:59:08;31.90;77.60
10583;DHT22;33679;51.218;6.786;2022-07-19T09:01:36;32.00;77.60
10583;DHT22;33679;51.218;6.786;2022-07-19T09:04:04;32.10;77.90
10583;DHT22;33679;51.218;6.786;2022-07-19T09:06:38;32.20;76.90
10583;DHT22;33679;51.218;6.786;2022-07-19T09:09:05;32.30;76.70
10583;DHT22;33679;51.218;6.786;2022-07-19T09:11:34;32.50;76.40
10583;DHT22;33679;51.218;6.786;2022-07-19T09:14:06;32.50;76.10
10583;DHT22;33679;51.218;6.786;2022-07-19T09:19:15;32.60;75.60
10583;DHT22;33679;51.218;6.786;2022-07-19T09:21:51;32.70;76.20
10583;DHT22;33679;51.218;6.786;2022-07-19T09:24:19;32.70;75.60
10583;DHT22;33679;51.218;6.786;2022-07-19T09:27:00;32.80;75.60
10583;DHT22;33679;51.218;6.786;2022-07-19T09:29:28;32.80;75.40
10583;DHT22;33679;51.218;6.786;2022-07-19T09:32:05;32.90;74.90
10583;DHT22;33679;51.218;6.786;2022-07-19T09:34:36;33.00;74.90
10583;DHT22;33679;51.218;6.786;2022-07-19T09:37:08;33.10;74.60
10583;DHT22;33679;51.218;6.786;2022-07-19T09:39:35;33.20;74.50
10583;DHT22;33679;51.218;6.786;2022-07-19T09:42:07;33.20;74.20
10583;DHT22;33679;51.218;6.786;2022-07-19T09:44:35;33.40;74.40
10583;DHT22;33679;51.218;6.786;2022-07-19T09:47:04;33.50;73.80
10583;DHT22;33679;51.218;6.786;2022-07-19T09:49:32;33.50;73.80
10583;DHT22;33679;51.218;6.786;2022-07-19T09:52:00;33.50;73.70
10583;DHT22;33679;51.218;6.786;2022-07-19T09:54:29;33.70;73.70
10583;DHT22;33679;51.218;6.786;2022-07-19T09:56:58;33.70;73.00
10583;DHT22;33679;51.218;6.786;2022-07-19T09:59:26;33.80;72.20
10583;DHT22;33679;51.218;6.786;2022-07-19T10:01:53;33.90;72.40
10583;DHT22;33679;51.218;6.786;2022-07-19T10:04:21;33.90;72.30
10583;DHT22;33679;51.218;6.786;2022-07-19T10:06:49;33.90;72.20
10583;DHT22;33679;51.218;6.786;2022-07-19T10:09:17;34.00;71.40
10583;DHT22;33679;51.218;6.786;2022-07-19T10:11:46;34.10;71.50
10583;DHT22;33679;51.218;6.786;2022-07-19T10:14:13;34.20;71.70
10583;DHT22;33679;51.218;6.786;2022-07-19T10:16:43;34.30;71.10
10583;DHT22;33679;51.218;6.786;2022-07-19T10:19:16;34.40;70.80
10583;DHT22;33679;51.218;6.786;2022-07-19T10:21:44;34.40;70.40
10583;DHT22;33679;51.218;6.786;2022-07-19T10:27:44;34.50;69.30
10583;DHT22;33679;51.218;6.786;2022-07-19T10:30:15;34.60;69.40
10583;DHT22;33679;51.218;6.786;2022-07-19T10:32:43;34.70;69.20
10583;DHT22;33679;51.218;6.786;2022-07-19T10:35:16;34.80;69.10
10583;DHT22;33679;51.218;6.786;2022-07-19T10:37:45;34.90;68.10
10583;DHT22;33679;51.218;6.786;2022-07-19T10:40:12;34.90;68.20
10583;DHT22;33679;51.218;6.786;2022-07-19T10:45:23;35.00;68.70
10583;DHT22;33679;51.218;6.786;2022-07-19T10:50:50;35.20;67.80
10583;DHT22;33679;51.218;6.786;2022-07-19T10:56:29;35.30;66.70
10583;DHT22;33679;51.218;6.786;2022-07-19T10:58:59;35.30;66.90
10583;DHT22;33679;51.218;6.786;2022-07-19T11:01:30;35.40;67.20
10583;DHT22;33679;51.218;6.786;2022-07-19T11:06:47;35.40;67.30
10583;DHT22;33679;51.218;6.786;2022-07-19T11:09:15;35.50;66.50
10583;DHT22;33679;51.218;6.786;2022-07-19T11:11:42;35.50;66.00
10583;DHT22;33679;51.218;6.786;2022-07-19T11:14:09;35.60;66.10
10583;DHT22;33679;51.218;6.786;2022-07-19T11:16:37;35.60;65.70
10583;DHT22;33679;51.218;6.786;2022-07-19T11:19:07;35.70;65.90
10583;DHT22;33679;51.218;6.786;2022-07-19T11:21:35;35.70;65.50
10583;DHT22;33679;51.218;6.786;2022-07-19T11:24:03;35.80;65.30
10583;DHT22;33679;51.218;6.786;2022-07-19T11:26:35;35.80;65.30
10583;DHT22;33679;51.218;6.786;2022-07-19T11:29:03;35.80;65.30
10583;DHT22;33679;51.218;6.786;2022-07-19T11:31:31;35.80;65.40
10583;DHT22;33679;51.218;6.786;2022-07-19T11:34:10;35.90;64.90
10583;DHT22;33679;51.218;6.786;2022-07-19T11:36:37;35.90;65.00
10583;DHT22;33679;51.218;6.786;2022-07-19T11:39:04;35.90;64.80
10583;DHT22;33679;51.218;6.786;2022-07-19T11:41:32;36.00;64.80
10583;DHT22;33679;51.218;6.786;2022-07-19T11:44:00;36.00;65.00
10583;DHT22;33679;51.218;6.786;2022-07-19T11:46:28;36.10;64.20
10583;DHT22;33679;51.218;6.786;2022-07-19T11:48:56;36.20;64.30
10583;DHT22;33679;51.218;6.786;2022-07-19T11:51:26;36.20;63.90
10583;DHT22;33679;51.218;6.786;2022-07-19T11:53:54;36.30;63.70
10583;DHT22;33679;51.218;6.786;2022-07-19T11:56:23;36.30;63.40
10583;DHT22;33679;51.218;6.786;2022-07-19T11:58:50;36.40;63.20
10583;DHT22;33679;51.218;6.786;2022-07-19T12:01:23;36.40;62.80
10583;DHT22;33679;51.218;6.786;2022-07-19T12:03:54;36.50;62.90
10583;DHT22;33679;51.218;6.786;2022-07-19T12:06:35;36.60;62.70
10583;DHT22;33679;51.218;6.786;2022-07-19T12:09:03;36.50;62.60
10583;DHT22;33679;51.218;6.786;2022-07-19T12:11:37;36.50;62.30
10583;DHT22;33679;51.218;6.786;2022-07-19T12:14:16;36.70;61.70
10583;DHT22;33679;51.218;6.786;2022-07-19T12:16:43;36.70;61.70
10583;DHT22;33679;51.218;6.786;2022-07-19T12:19:12;36.60;61.50
10583;DHT22;33679;51.218;6.786;2022-07-19T12:21:42;36.70;61.30
10583;DHT22;33679;51.218;6.786;2022-07-19T12:24:13;36.70;60.40
10583;DHT22;33679;51.218;6.786;2022-07-19T12:26:41;36.70;60.40
10583;DHT22;33679;51.218;6.786;2022-07-19T12:29:18;36.70;59.80
10583;DHT22;33679;51.218;6.786;2022-07-19T12:31:46;36.70;60.00
10583;DHT22;33679;51.218;6.786;2022-07-19T12:34:14;36.60;60.00
10583;DHT22;33679;51.218;6.786;2022-07-19T12:36:43;36.70;60.40
10583;DHT22;33679;51.218;6.786;2022-07-19T12:39:17;36.70;59.50
10583;DHT22;33679;51.218;6.786;2022-07-19T12:44:44;36.90;59.80
10583;DHT22;33679;51.218;6.786;2022-07-19T12:47:11;36.80;59.80
10583;DHT22;33679;51.218;6.786;2022-07-19T12:49:43;36.90;59.90
10583;DHT22;33679;51.218;6.786;2022-07-19T12:52:11;37.00;59.80
10583;DHT22;33679;51.218;6.786;2022-07-19T12:54:39;37.00;59.70
10583;DHT22;33679;51.218;6.786;2022-07-19T12:57:06;37.00;60.10
10583;DHT22;33679;51.218;6.786;2022-07-19T12:59:33;37.00;60.00
10583;DHT22;33679;51.218;6.786;2022-07-19T13:02:06;37.00;60.00
10583;DHT22;33679;51.218;6.786;2022-07-19T13:04:36;37.10;60.00
10583;DHT22;33679;51.218;6.786;2022-07-19T13:07:04;37.10;60.10
10583;DHT22;33679;51.218;6.786;2022-07-19T13:09:32;37.10;60.20
10583;DHT22;33679;51.218;6.786;2022-07-19T13:12:00;37.10;60.30
10583;DHT22;33679;51.218;6.786;2022-07-19T13:14:29;37.10;60.20
10583;DHT22;33679;51.218;6.786;2022-07-19T13:16:57;37.10;60.10
10583;DHT22;33679;51.218;6.786;2022-07-19T13:19:26;37.20;59.50
10583;DHT22;33679;51.218;6.786;2022-07-19T13:22:08;37.20;59.30
10583;DHT22;33679;51.218;6.786;2022-07-19T13:24:37;37.30;58.50
10583;DHT22;33679;51.218;6.786;2022-07-19T13:27:04;37.30;58.30
10583;DHT22;33679;51.218;6.786;2022-07-19T13:29:31;37.30;58.40
10583;DHT22;33679;51.218;6.786;2022-07-19T13:32:00;37.40;58.70
10583;DHT22;33679;51.218;6.786;2022-07-19T13:34:29;37.40;58.50
10583;DHT22;33679;51.218;6.786;2022-07-19T13:36:56;37.50;58.40
10583;DHT22;33679;51.218;6.786;2022-07-19T13:39:23;37.60;58.10
10583;DHT22;33679;51.218;6.786;2022-07-19T13:41:52;37.50;57.60
10583;DHT22;33679;51.218;6.786;2022-07-19T13:44:19;37.50;57.80
10583;DHT22;33679;51.218;6.786;2022-07-19T13:46:47;37.50;57.50
10583;DHT22;33679;51.218;6.786;2022-07-19T13:49:14;37.50;57.50
10583;DHT22;33679;51.218;6.786;2022-07-19T13:51:45;37.60;58.50
10583;DHT22;33679;51.218;6.786;2022-07-19T13:54:13;37.70;58.10
10583;DHT22;33679;51.218;6.786;2022-07-19T13:56:41;37.60;57.70
10583;DHT22;33679;51.218;6.786;2022-07-19T13:59:11;37.60;58.10
10583;DHT22;33679;51.218;6.786;2022-07-19T14:01:39;37.60;57.60
10583;DHT22;33679;51.218;6.786;2022-07-19T14:04:06;37.60;57.00
10583;DHT22;33679;51.218;6.786;2022-07-19T14:06:33;37.60;56.70
10583;DHT22;33679;51.218;6.786;2022-07-19T14:09:04;37.70;56.30
10583;DHT22;33679;51.218;6.786;2022-07-19T14:11:32;37.70;56.40
10583;DHT22;33679;51.218;6.786;2022-07-19T14:14:00;37.70;56.30
10583;DHT22;33679;51.218;6.786;2022-07-19T14:16:29;37.80;55.70
10583;DHT22;33679;51.218;6.786;2022-07-19T14:18:56;37.80;55.10
10583;DHT22;33679;51.218;6.786;2022-07-19T14:21:23;37.80;55.10
10583;DHT22;33679;51.218;6.786;2022-07-19T14:23:51;37.80;54.40
10583;DHT22;33679;51.218;6.786;2022-07-19T14:26:18;37.90;53.70
10583;DHT22;33679;51.218;6.786;2022-07-19T14:28:45;37.90;53.70
10583;DHT22;33679;51.218;6.786;2022-07-19T14:31:13;37.90;53.70
10583;DHT22;33679;51.218;6.786;2022-07-19T14:33:43;37.90;54.00
10583;DHT22;33679;51.218;6.786;2022-07-19T14:36:10;37.90;54.30
10583;DHT22;33679;51.218;6.786;2022-07-19T14:38:37;37.90;54.60
10583;DHT22;33679;51.218;6.786;2022-07-19T14:41:05;37.90;54.50
10583;DHT22;33679;51.218;6.786;2022-07-19T14:43:33;37.90;54.30
10583;DHT22;33679;51.218;6.786;2022-07-19T14:46:00;38.00;54.80
10583;DHT22;33679;51.218;6.786;2022-07-19T14:48:27;38.10;54.10
10583;DHT22;33679;51.218;6.786;2022-07-19T14:50:56;38.10;53.80
10583;DHT22;33679;51.218;6.786;2022-07-19T14:53:23;38.10;54.00
10583;DHT22;33679;51.218;6.786;2022-07-19T14:55:50;38.20;54.20
10583;DHT22;33679;51.218;6.786;2022-07-19T14:58:18;38.10;53.60
10583;DHT22;33679;51.218;6.786;2022-07-19T15:00:46;38.10;53.30
10583;DHT22;33679;51.218;6.786;2022-07-19T15:03:13;38.10;53.80
10583;DHT22;33679;51.218;6.786;2022-07-19T15:05:40;38.10;53.70
10583;DHT22;33679;51.218;6.786;2022-07-19T15:08:09;38.10;53.60
10583;DHT22;33679;51.218;6.786;2022-07-19T15:10:41;38.30;53.70
10583;DHT22;33679;51.218;6.786;2022-07-19T15:13:08;38.20;54.10
10583;DHT22;33679;51.218;6.786;2022-07-19T15:15:35;38.20;53.80
10583;DHT22;33679;51.218;6.786;2022-07-19T15:18:03;38.20;53.80
10583;DHT22;33679;51.218;6.786;2022-07-19T15:20:31;38.20;53.70
10583;DHT22;33679;51.218;6.786;2022-07-19T15:22:58;38.20;53.60
10583;DHT22;33679;51.218;6.786;2022-07-19T15:25:30;38.10;53.80
10583;DHT22;33679;51.218;6.786;2022-07-19T15:27:57;38.10;53.80
10583;DHT22;33679;51.218;6.786;2022-07-19T15:30:25;38.10;53.70
10583;DHT22;33679;51.218;6.786;2022-07-19T15:32:52;38.10;53.80
10583;DHT22;33679;51.218;6.786;2022-07-19T15:35:20;38.00;54.00
10583;DHT22;33679;51.218;6.786;2022-07-19T15:37:47;38.10;54.00
10583;DHT22;33679;51.218;6.786;2022-07-19T15:40:14;38.10;54.30
10583;DHT22;33679;51.218;6.786;2022-07-19T15:42:45;38.00;54.40
10583;DHT22;33679;51.218;6.786;2022-07-19T15:45:13;38.10;54.50
10583;DHT22;33679;51.218;6.786;2022-07-19T15:47:41;38.00;54.70
10583;DHT22;33679;51.218;6.786;2022-07-19T15:50:09;38.00;54.90
10583;DHT22;33679;51.218;6.786;2022-07-19T15:52:36;38.00;55.20
10583;DHT22;33679;51.218;6.786;2022-07-19T15:55:07;38.00;55.20
10583;DHT22;33679;51.218;6.786;2022-07-19T15:57:35;38.00;55.60